sensor_id;sensor_type;location;lat;lon;timestamp;P1;durP1;ratioP1;P2;durP2;ratioP2
16906;SDS011;8570;52.380;4.654;2023-04-24T00:04:47;4.43;;;2.85;;
16906;SDS011;8570;52.380;4.654;2023-04-24T00:09:49;2.55;;;2.05;;
16906;SDS011;8570;52.380;4.654;2023-04-24T00:14:52;2.83;;;1.90;;
16906;SDS011;8570;52.380;4.654;2023-04-24T00:19:54;4.18;;;2.20;;
16906;SDS011;8570;52.380;4.654;2023-04-24T00:24:58;3.90;;;1.60;;
16906;SDS011;8570;52.380;4.654;2023-04-24T00:30:02;5.65;;;1.80;;
16906;SDS011;8570;52.380;4.654;2023-04-24T00:35:05;5.72;;;1.73;;
16906;SDS011;8570;52.380;4.654;2023-04-24T00:40:07;3.10;;;1.55;;
16906;SDS011;8570;52.380;4.654;2023-04-24T00:45:11;3.80;;;1.88;;
16906;SDS011;8570;52.380;4.654;2023-04-24T00:50:14;3.80;;;1.55;;
16906;SDS011;8570;52.380;4.654;2023-04-24T00:55:17;2.17;;;1.27;;
16906;SDS011;8570;52.380;4.654;2023-04-24T01:00:23;7.57;;;1.55;;
16906;SDS011;8570;52.380;4.654;2023-04-24T01:05:25;2.67;;;1.23;;
16906;SDS011;8570;52.380;4.654;2023-04-24T01:10:27;2.97;;;1.13;;
16906;SDS011;8570;52.380;4.654;2023-04-24T01:15:33;5.60;;;1.23;;
16906;SDS011;8570;52.380;4.654;2023-04-24T01:20:35;4.93;;;1.60;;
16906;SDS011;8570;52.380;4.654;2023-04-24T01:25:41;8.27;;;1.60;;
16906;SDS011;8570;52.380;4.654;2023-04-24T01:30:44;4.15;;;1.27;;
16906;SDS011;8570;52.380;4.654;2023-04-24T01:35:46;7.83;;;1.53;;
16906;SDS011;8570;52.380;4.654;2023-04-24T01:40:50;6.13;;;1.40;;
16906;SDS011;8570;52.380;4.654;2023-04-24T01:45:53;4.30;;;1.42;;
16906;SDS011;8570;52.380;4.654;2023-04-24T01:50:55;3.43;;;1.27;;
16906;SDS011;8570;52.380;4.654;2023-04-24T01:55:59;3.27;;;1.20;;
16906;SDS011;8570;52.380;4.654;2023-04-24T02:01:02;2.87;;;0.87;;
16906;SDS011;8570;52.380;4.654;2023-04-24T02:06:04;3.30;;;0.80;;
16906;SDS011;8570;52.380;4.654;2023-04-24T02:11:09;2.50;;;0.40;;
16906;SDS011;8570;52.380;4.654;2023-04-24T02:16:11;2.43;;;0.70;;
16906;SDS011;8570;52.380;4.654;2023-04-24T02:21:13;0.63;;;0.33;;
16906;SDS011;8570;52.380;4.654;2023-04-24T02:26:16;0.80;;;0.50;;
16906;SDS011;8570;52.380;4.654;2023-04-24T02:31:18;0.97;;;0.53;;
16906;SDS011;8570;52.380;4.654;2023-04-24T02:36:20;1.10;;;0.40;;
16906;SDS011;8570;52.380;4.654;2023-04-24T02:41:24;3.70;;;0.83;;
16906;SDS011;8570;52.380;4.654;2023-04-24T02:46:31;1.43;;;0.73;;
16906;SDS011;8570;52.380;4.654;2023-04-24T02:51:33;1.13;;;0.80;;
16906;SDS011;8570;52.380;4.654;2023-04-24T02:56:36;2.57;;;0.87;;
16906;SDS011;8570;52.380;4.654;2023-04-24T03:01:38;5.17;;;0.87;;
16906;SDS011;8570;52.380;4.654;2023-04-24T03:06:40;1.00;;;0.77;;
16906;SDS011;8570;52.380;4.654;2023-04-24T03:11:43;1.50;;;1.00;;
16906;SDS011;8570;52.380;4.654;2023-04-24T03:16:45;3.13;;;0.80;;
16906;SDS011;8570;52.380;4.654;2023-04-24T03:21:47;3.00;;;0.90;;
16906;SDS011;8570;52.380;4.654;2023-04-24T03:26:51;2.53;;;0.73;;
16906;SDS011;8570;52.380;4.654;2023-04-24T03:31:52;0.70;;;0.60;;
16906;SDS011;8570;52.380;4.654;2023-04-24T03:36:54;1.70;;;0.60;;
16906;SDS011;8570;52.380;4.654;2023-04-24T03:41:57;4.30;;;0.80;;
16906;SDS011;8570;52.380;4.654;2023-04-24T03:47:00;6.90;;;0.97;;
16906;SDS011;8570;52.380;4.654;2023-04-24T03:52:02;4.33;;;1.10;;
16906;SDS011;8570;52.380;4.654;2023-04-24T03:57:05;2.47;;;0.70;;
16906;SDS011;8570;52.380;4.654;2023-04-24T04:02:07;4.77;;;0.93;;
16906;SDS011;8570;52.380;4.654;2023-04-24T04:07:09;3.07;;;0.80;;
16906;SDS011;8570;52.380;4.654;2023-04-24T04:12:12;3.13;;;0.80;;
16906;SDS011;8570;52.380;4.654;2023-04-24T04:17:14;5.13;;;0.87;;
16906;SDS011;8570;52.380;4.654;2023-04-24T04:22:16;3.83;;;0.80;;
16906;SDS011;8570;52.380;4.654;2023-04-24T04:27:19;2.57;;;0.87;;
16906;SDS011;8570;52.380;4.654;2023-04-24T04:32:21;1.63;;;0.70;;
16906;SDS011;8570;52.380;4.654;2023-04-24T04:37:23;3.10;;;1.00;;
16906;SDS011;8570;52.380;4.654;2023-04-24T04:42:27;3.00;;;1.10;;
16906;SDS011;8570;52.380;4.654;2023-04-24T04:47:29;4.73;;;1.43;;
16906;SDS011;8570;52.380;4.654;2023-04-24T04:52:32;5.67;;;2.27;;
16906;SDS011;8570;52.380;4.654;2023-04-24T04:57:35;6.93;;;3.37;;
16906;SDS011;8570;52.380;4.654;2023-04-24T05:02:37;6.90;;;4.20;;
16906;SDS011;8570;52.380;4.654;2023-04-24T05:07:39;12.77;;;5.27;;
16906;SDS011;8570;52.380;4.654;2023-04-24T05:12:43;17.93;;;9.47;;
16906;SDS011;8570;52.380;4.654;2023-04-24T05:17:44;27.30;;;12.03;;
16906;SDS011;8570;52.380;4.654;2023-04-24T05:22:47;16.00;;;10.17;;
16906;SDS011;8570;52.380;4.654;2023-04-24T05:27:50;21.20;;;11.20;;
16906;SDS011;8570;52.380;4.654;2023-04-24T05:32:53;24.60;;;11.63;;
16906;SDS011;8570;52.380;4.654;2023-04-24T05:37:55;18.63;;;10.43;;
16906;SDS011;8570;52.380;4.654;2023-04-24T05:42:58;25.80;;;10.73;;
16906;SDS011;8570;52.380;4.654;2023-04-24T05:48:00;18.97;;;9.77;;
16906;SDS011;8570;52.380;4.654;2023-04-24T05:53:02;17.50;;;8.90;;
16906;SDS011;8570;52.380;4.654;2023-04-24T05:58:08;17.00;;;9.20;;
16906;SDS011;8570;52.380;4.654;2023-04-24T06:03:10;20.17;;;9.23;;
16906;SDS011;8570;52.380;4.654;2023-04-24T06:08:12;18.43;;;8.97;;
16906;SDS011;8570;52.380;4.654;2023-04-24T06:13:16;17.13;;;8.10;;
16906;SDS011;8570;52.380;4.654;2023-04-24T06:18:18;19.27;;;7.57;;
16906;SDS011;8570;52.380;4.654;2023-04-24T06:23:20;32.13;;;7.97;;
16906;SDS011;8570;52.380;4.654;2023-04-24T06:28:24;22.90;;;7.60;;
16906;SDS011;8570;52.380;4.654;2023-04-24T06:33:26;19.50;;;6.70;;
16906;SDS011;8570;52.380;4.654;2023-04-24T06:38:28;21.40;;;6.97;;
16906;SDS011;8570;52.380;4.654;2023-04-24T06:43:32;24.00;;;6.87;;
16906;SDS011;8570;52.380;4.654;2023-04-24T06:48:34;18.20;;;6.53;;
16906;SDS011;8570;52.380;4.654;2023-04-24T06:53:36;22.83;;;6.30;;
16906;SDS011;8570;52.380;4.654;2023-04-24T06:58:40;26.17;;;6.20;;
16906;SDS011;8570;52.380;4.654;2023-04-24T07:03:42;25.97;;;7.00;;
16906;SDS011;8570;52.380;4.654;2023-04-24T07:08:44;31.53;;;6.10;;
16906;SDS011;8570;52.380;4.654;2023-04-24T07:13:48;21.07;;;4.87;;
16906;SDS011;8570;52.380;4.654;2023-04-24T07:18:52;27.77;;;5.40;;
16906;SDS011;8570;52.380;4.654;2023-04-24T07:23:54;21.23;;;4.30;;
16906;SDS011;8570;52.380;4.654;2023-04-24T07:28:57;19.90;;;4.10;;
16906;SDS011;8570;52.380;4.654;2023-04-24T07:34:00;17.63;;;3.77;;
16906;SDS011;8570;52.380;4.654;2023-04-24T07:39:02;17.60;;;4.00;;
16906;SDS011;8570;52.380;4.654;2023-04-24T07:44:06;15.93;;;3.80;;
16906;SDS011;8570;52.380;4.654;2023-04-24T07:49:08;17.53;;;3.20;;
16906;SDS011;8570;52.380;4.654;2023-04-24T07:54:10;9.43;;;2.80;;
16906;SDS011;8570;52.380;4.654;2023-04-24T07:59:14;10.83;;;2.87;;
16906;SDS011;8570;52.380;4.654;2023-04-24T08:04:16;11.50;;;3.10;;
16906;SDS011;8570;52.380;4.654;2023-04-24T08:09:18;14.13;;;3.23;;
16906;SDS011;8570;52.380;4.654;2023-04-24T08:14:22;15.17;;;4.17;;
16906;SDS011;8570;52.380;4.654;2023-04-24T08:19:24;15.40;;;3.73;;
16906;SDS011;8570;52.380;4.654;2023-04-24T08:24:26;15.07;;;3.50;;
16906;SDS011;8570;52.380;4.654;2023-04-24T08:29:30;13.47;;;3.80;;
16906;SDS011;8570;52.380;4.654;2023-04-24T08:34:32;15.33;;;3.73;;
16906;SDS011;8570;52.380;4.654;2023-04-24T08:39:34;12.07;;;3.77;;
16906;SDS011;8570;52.380;4.654;2023-04-24T08:44:37;20.90;;;3.60;;
16906;SDS011;8570;52.380;4.654;2023-04-24T08:49:40;9.63;;;2.53;;
16906;SDS011;8570;52.380;4.654;2023-04-24T08:54:42;18.37;;;3.40;;
16906;SDS011;8570;52.380;4.654;2023-04-24T08:59:47;10.53;;;2.60;;
16906;SDS011;8570;52.380;4.654;2023-04-24T09:04:49;9.77;;;3.07;;
16906;SDS011;8570;52.380;4.654;2023-04-24T09:09:51;9.03;;;2.10;;
16906;SDS011;8570;52.380;4.654;2023-04-24T09:14:55;10.90;;;2.33;;
16906;SDS011;8570;52.380;4.654;2023-04-24T09:19:58;9.80;;;2.07;;
16906;SDS011;8570;52.380;4.654;2023-04-24T09:25:01;6.53;;;2.03;;
16906;SDS011;8570;52.380;4.654;2023-04-24T09:30:07;12.57;;;2.00;;
16906;SDS011;8570;52.380;4.654;2023-04-24T09:35:10;12.50;;;2.07;;
16906;SDS011;8570;52.380;4.654;2023-04-24T09:40:14;8.67;;;2.13;;
16906;SDS011;8570;52.380;4.654;2023-04-24T09:45:18;7.40;;;1.57;;
16906;SDS011;8570;52.380;4.654;2023-04-24T09:50:21;8.23;;;1.70;;
16906;SDS011;8570;52.380;4.654;2023-04-24T09:55:24;11.23;;;1.53;;
16906;SDS011;8570;52.380;4.654;2023-04-24T10:00:28;14.13;;;1.83;;
16906;SDS011;8570;52.380;4.654;2023-04-24T10:05:31;7.20;;;1.87;;
16906;SDS011;8570;52.380;4.654;2023-04-24T10:10:41;13.43;;;1.80;;
16906;SDS011;8570;52.380;4.654;2023-04-24T10:15:45;9.60;;;1.73;;
16906;SDS011;8570;52.380;4.654;2023-04-24T10:20:49;5.93;;;1.30;;
16906;SDS011;8570;52.380;4.654;2023-04-24T10:25:51;5.83;;;1.30;;
16906;SDS011;8570;52.380;4.654;2023-04-24T10:30:56;5.90;;;1.30;;
16906;SDS011;8570;52.380;4.654;2023-04-24T10:35:59;7.90;;;1.50;;
16906;SDS011;8570;52.380;4.654;2023-04-24T10:41:06;8.20;;;1.40;;
16906;SDS011;8570;52.380;4.654;2023-04-24T10:46:11;12.97;;;2.23;;
16906;SDS011;8570;52.380;4.654;2023-04-24T10:51:18;5.43;;;1.40;;
16906;SDS011;8570;52.380;4.654;2023-04-24T10:56:23;8.37;;;1.60;;
16906;SDS011;8570;52.380;4.654;2023-04-24T11:01:28;7.97;;;1.90;;
16906;SDS011;8570;52.380;4.654;2023-04-24T11:06:32;10.17;;;2.10;;
16906;SDS011;8570;52.380;4.654;2023-04-24T11:11:37;7.28;;;1.33;;
16906;SDS011;8570;52.380;4.654;2023-04-24T11:16:44;4.63;;;1.10;;
16906;SDS011;8570;52.380;4.654;2023-04-24T11:21:55;6.80;;;1.60;;
16906;SDS011;8570;52.380;4.654;2023-04-24T11:27:05;8.30;;;1.85;;
16906;SDS011;8570;52.380;4.654;2023-04-24T11:32:16;13.75;;;2.60;;
16906;SDS011;8570;52.380;4.654;2023-04-24T11:37:19;9.75;;;1.95;;
16906;SDS011;8570;52.380;4.654;2023-04-24T11:42:21;12.13;;;2.85;;
16906;SDS011;8570;52.380;4.654;2023-04-24T11:47:29;13.98;;;3.50;;
16906;SDS011;8570;52.380;4.654;2023-04-24T11:52:33;15.95;;;3.42;;
16906;SDS011;8570;52.380;4.654;2023-04-24T11:57:38;15.93;;;3.72;;
16906;SDS011;8570;52.380;4.654;2023-04-24T12:02:45;14.85;;;3.92;;
16906;SDS011;8570;52.380;4.654;2023-04-24T12:07:48;24.13;;;3.60;;
16906;SDS011;8570;52.380;4.654;2023-04-24T12:12:50;17.05;;;3.85;;
16906;SDS011;8570;52.380;4.654;2023-04-24T12:17:54;21.92;;;3.30;;
16906;SDS011;8570;52.380;4.654;2023-04-24T12:22:57;12.70;;;3.80;;
16906;SDS011;8570;52.380;4.654;2023-04-24T12:28:08;15.48;;;3.75;;
16906;SDS011;8570;52.380;4.654;2023-04-24T12:33:13;20.63;;;3.33;;
16906;SDS011;8570;52.380;4.654;2023-04-24T12:38:21;19.75;;;3.65;;
16906;SDS011;8570;52.380;4.654;2023-04-24T12:43:24;17.88;;;3.70;;
16906;SDS011;8570;52.380;4.654;2023-04-24T12:48:27;15.80;;;4.10;;
16906;SDS011;8570;52.380;4.654;2023-04-24T12:53:29;15.13;;;3.83;;
16906;SDS011;8570;52.380;4.654;2023-04-24T12:58:32;18.88;;;3.97;;
16906;SDS011;8570;52.380;4.654;2023-04-24T13:03:35;11.32;;;3.35;;
16906;SDS011;8570;52.380;4.654;2023-04-24T13:08:37;13.93;;;3.78;;
16906;SDS011;8570;52.380;4.654;2023-04-24T13:13:39;13.95;;;3.92;;
16906;SDS011;8570;52.380;4.654;2023-04-24T13:18:43;15.38;;;4.53;;
16906;SDS011;8570;52.380;4.654;2023-04-24T13:23:45;18.55;;;4.45;;
16906;SDS011;8570;52.380;4.654;2023-04-24T13:28:48;19.38;;;4.93;;
16906;SDS011;8570;52.380;4.654;2023-04-24T13:33:52;15.75;;;4.28;;
16906;SDS011;8570;52.380;4.654;2023-04-24T13:38:54;11.23;;;2.92;;
16906;SDS011;8570;52.380;4.654;2023-04-24T13:43:56;13.40;;;3.65;;
16906;SDS011;8570;52.380;4.654;2023-04-24T13:48:59;9.70;;;3.13;;
16906;SDS011;8570;52.380;4.654;2023-04-24T13:54:02;10.23;;;2.95;;
16906;SDS011;8570;52.380;4.654;2023-04-24T13:59:04;15.80;;;3.63;;
16906;SDS011;8570;52.380;4.654;2023-04-24T14:04:08;10.13;;;2.70;;
16906;SDS011;8570;52.380;4.654;2023-04-24T14:09:10;19.73;;;3.70;;
16906;SDS011;8570;52.380;4.654;2023-04-24T14:14:12;16.15;;;4.28;;
16906;SDS011;8570;52.380;4.654;2023-04-24T14:19:16;21.60;;;4.65;;
16906;SDS011;8570;52.380;4.654;2023-04-24T14:24:18;15.45;;;4.10;;
16906;SDS011;8570;52.380;4.654;2023-04-24T14:29:20;15.02;;;4.25;;
16906;SDS011;8570;52.380;4.654;2023-04-24T14:34:24;13.50;;;4.35;;
16906;SDS011;8570;52.380;4.654;2023-04-24T14:39:26;19.38;;;4.13;;
16906;SDS011;8570;52.380;4.654;2023-04-24T14:44:28;17.15;;;4.32;;
16906;SDS011;8570;52.380;4.654;2023-04-24T14:49:32;17.48;;;4.40;;
16906;SDS011;8570;52.380;4.654;2023-04-24T14:54:34;17.77;;;4.15;;
16906;SDS011;8570;52.380;4.654;2023-04-24T14:59:36;16.35;;;4.53;;
16906;SDS011;8570;52.380;4.654;2023-04-24T15:04:40;14.07;;;3.67;;
16906;SDS011;8570;52.380;4.654;2023-04-24T15:09:42;14.10;;;3.72;;
16906;SDS011;8570;52.380;4.654;2023-04-24T15:14:44;12.38;;;4.47;;
16906;SDS011;8570;52.380;4.654;2023-04-24T15:19:47;15.15;;;4.15;;
16906;SDS011;8570;52.380;4.654;2023-04-24T15:24:50;14.60;;;3.88;;
16906;SDS011;8570;52.380;4.654;2023-04-24T15:29:52;13.10;;;3.75;;
16906;SDS011;8570;52.380;4.654;2023-04-24T15:34:56;15.13;;;3.75;;
16906;SDS011;8570;52.380;4.654;2023-04-24T15:39:58;16.95;;;3.85;;
16906;SDS011;8570;52.380;4.654;2023-04-24T15:45:00;15.23;;;3.95;;
16906;SDS011;8570;52.380;4.654;2023-04-24T15:50:04;21.27;;;4.57;;
16906;SDS011;8570;52.380;4.654;2023-04-24T15:55:08;23.02;;;3.83;;
16906;SDS011;8570;52.380;4.654;2023-04-24T16:00:11;14.57;;;3.38;;
16906;SDS011;8570;52.380;4.654;2023-04-24T16:05:14;15.52;;;4.03;;
16906;SDS011;8570;52.380;4.654;2023-04-24T16:10:17;15.88;;;3.83;;
16906;SDS011;8570;52.380;4.654;2023-04-24T16:15:19;17.48;;;3.92;;
16906;SDS011;8570;52.380;4.654;2023-04-24T16:20:22;14.18;;;4.22;;
16906;SDS011;8570;52.380;4.654;2023-04-24T16:25:25;13.65;;;4.07;;
16906;SDS011;8570;52.380;4.654;2023-04-24T16:30:27;14.95;;;4.38;;
16906;SDS011;8570;52.380;4.654;2023-04-24T16:35:31;20.88;;;3.80;;
16906;SDS011;8570;52.380;4.654;2023-04-24T16:40:32;21.75;;;4.78;;
16906;SDS011;8570;52.380;4.654;2023-04-24T16:45:34;20.30;;;4.35;;
16906;SDS011;8570;52.380;4.654;2023-04-24T16:50:38;19.55;;;4.10;;
16906;SDS011;8570;52.380;4.654;2023-04-24T16:55:39;11.15;;;3.53;;
16906;SDS011;8570;52.380;4.654;2023-04-24T17:00:42;17.35;;;4.50;;
16906;SDS011;8570;52.380;4.654;2023-04-24T17:05:47;13.38;;;3.75;;
16906;SDS011;8570;52.380;4.654;2023-04-24T17:10:49;15.68;;;3.92;;
16906;SDS011;8570;52.380;4.654;2023-04-24T17:15:51;19.70;;;4.05;;
16906;SDS011;8570;52.380;4.654;2023-04-24T17:20:54;14.85;;;3.95;;
16906;SDS011;8570;52.380;4.654;2023-04-24T17:25:56;9.50;;;2.90;;
16906;SDS011;8570;52.380;4.654;2023-04-24T17:30:58;17.08;;;3.55;;
16906;SDS011;8570;52.380;4.654;2023-04-24T17:36:02;12.37;;;2.80;;
16906;SDS011;8570;52.380;4.654;2023-04-24T17:41:05;12.05;;;2.95;;
16906;SDS011;8570;52.380;4.654;2023-04-24T17:46:07;13.55;;;2.88;;
16906;SDS011;8570;52.380;4.654;2023-04-24T17:51:11;9.60;;;1.88;;
16906;SDS011;8570;52.380;4.654;2023-04-24T17:56:12;5.38;;;1.60;;
16906;SDS011;8570;52.380;4.654;2023-04-24T18:01:14;7.50;;;1.73;;
16906;SDS011;8570;52.380;4.654;2023-04-24T18:06:18;6.23;;;1.80;;
16906;SDS011;8570;52.380;4.654;2023-04-24T18:11:20;5.67;;;1.80;;
16906;SDS011;8570;52.380;4.654;2023-04-24T18:16:21;5.30;;;1.80;;
16906;SDS011;8570;52.380;4.654;2023-04-24T18:21:25;8.23;;;2.00;;
16906;SDS011;8570;52.380;4.654;2023-04-24T18:26:27;12.50;;;2.73;;
16906;SDS011;8570;52.380;4.654;2023-04-24T18:31:29;10.27;;;2.13;;
16906;SDS011;8570;52.380;4.654;2023-04-24T18:36:33;10.40;;;2.70;;
16906;SDS011;8570;52.380;4.654;2023-04-24T18:41:35;11.70;;;2.20;;
16906;SDS011;8570;52.380;4.654;2023-04-24T18:46:37;6.07;;;1.60;;
16906;SDS011;8570;52.380;4.654;2023-04-24T18:51:41;6.63;;;1.30;;
16906;SDS011;8570;52.380;4.654;2023-04-24T18:56:44;9.53;;;1.90;;
16906;SDS011;8570;52.380;4.654;2023-04-24T19:01:46;5.10;;;1.60;;
16906;SDS011;8570;52.380;4.654;2023-04-24T19:06:49;7.43;;;1.80;;
16906;SDS011;8570;52.380;4.654;2023-04-24T19:11:52;7.83;;;2.30;;
16906;SDS011;8570;52.380;4.654;2023-04-24T19:16:54;8.13;;;2.33;;
16906;SDS011;8570;52.380;4.654;2023-04-24T19:21:57;10.17;;;2.30;;
16906;SDS011;8570;52.380;4.654;2023-04-24T19:26:59;9.97;;;2.33;;
16906;SDS011;8570;52.380;4.654;2023-04-24T19:32:02;8.57;;;1.97;;
16906;SDS011;8570;52.380;4.654;2023-04-24T19:37:05;16.97;;;2.90;;
16906;SDS011;8570;52.380;4.654;2023-04-24T19:42:07;14.13;;;3.03;;
16906;SDS011;8570;52.380;4.654;2023-04-24T19:47:09;11.80;;;2.67;;
16906;SDS011;8570;52.380;4.654;2023-04-24T19:52:14;8.63;;;2.60;;
16906;SDS011;8570;52.380;4.654;2023-04-24T19:57:16;10.60;;;2.70;;
16906;SDS011;8570;52.380;4.654;2023-04-24T20:02:18;14.10;;;3.27;;
16906;SDS011;8570;52.380;4.654;2023-04-24T20:07:22;13.17;;;2.77;;
16906;SDS011;8570;52.380;4.654;2023-04-24T20:12:25;7.77;;;2.57;;
16906;SDS011;8570;52.380;4.654;2023-04-24T20:17:27;7.07;;;2.00;;
16906;SDS011;8570;52.380;4.654;2023-04-24T20:22:31;7.03;;;2.20;;
16906;SDS011;8570;52.380;4.654;2023-04-24T20:27:37;14.93;;;3.10;;
16906;SDS011;8570;52.380;4.654;2023-04-24T20:32:40;12.37;;;3.30;;
16906;SDS011;8570;52.380;4.654;2023-04-24T20:37:44;19.43;;;3.90;;
16906;SDS011;8570;52.380;4.654;2023-04-24T20:42:46;12.80;;;3.00;;
16906;SDS011;8570;52.380;4.654;2023-04-24T20:47:49;13.07;;;2.73;;
16906;SDS011;8570;52.380;4.654;2023-04-24T20:52:53;10.37;;;3.30;;
16906;SDS011;8570;52.380;4.654;2023-04-24T20:57:55;16.30;;;2.97;;
16906;SDS011;8570;52.380;4.654;2023-04-24T21:02:59;14.00;;;3.50;;
16906;SDS011;8570;52.380;4.654;2023-04-24T21:08:02;15.10;;;3.60;;
16906;SDS011;8570;52.380;4.654;2023-04-24T21:13:05;13.17;;;3.50;;
16906;SDS011;8570;52.380;4.654;2023-04-24T21:18:07;14.27;;;3.83;;
16906;SDS011;8570;52.380;4.654;2023-04-24T21:23:10;14.80;;;3.70;;
16906;SDS011;8570;52.380;4.654;2023-04-24T21:28:13;16.20;;;3.63;;
16906;SDS011;8570;52.380;4.654;2023-04-24T21:33:15;14.33;;;4.33;;
16906;SDS011;8570;52.380;4.654;2023-04-24T21:38:20;16.23;;;5.13;;
16906;SDS011;8570;52.380;4.654;2023-04-24T21:43:24;28.17;;;4.90;;
16906;SDS011;8570;52.380;4.654;2023-04-24T21:48:26;24.73;;;5.53;;
16906;SDS011;8570;52.380;4.654;2023-04-24T21:53:30;17.70;;;4.57;;
16906;SDS011;8570;52.380;4.654;2023-04-24T21:58:32;30.03;;;4.87;;
16906;SDS011;8570;52.380;4.654;2023-04-24T22:03:35;16.33;;;4.60;;
16906;SDS011;8570;52.380;4.654;2023-04-24T22:08:38;22.27;;;4.83;;
16906;SDS011;8570;52.380;4.654;2023-04-24T22:13:42;19.50;;;4.07;;
16906;SDS011;8570;52.380;4.654;2023-04-24T22:18:45;27.07;;;4.50;;
16906;SDS011;8570;52.380;4.654;2023-04-24T22:23:49;16.63;;;3.63;;
16906;SDS011;8570;52.380;4.654;2023-04-24T22:28:52;20.40;;;3.83;;
16906;SDS011;8570;52.380;4.654;2023-04-24T22:33:54;21.67;;;4.43;;
16906;SDS011;8570;52.380;4.654;2023-04-24T22:38:58;20.87;;;4.50;;
16906;SDS011;8570;52.380;4.654;2023-04-24T22:44:00;19.30;;;5.00;;
16906;SDS011;8570;52.380;4.654;2023-04-24T22:49:03;21.13;;;4.57;;
16906;SDS011;8570;52.380;4.654;2023-04-24T22:54:06;15.77;;;4.17;;
16906;SDS011;8570;52.380;4.654;2023-04-24T22:59:08;15.30;;;3.63;;
16906;SDS011;8570;52.380;4.654;2023-04-24T23:04:11;11.67;;;3.87;;
16906;SDS011;8570;52.380;4.654;2023-04-24T23:09:14;16.07;;;3.90;;
16906;SDS011;8570;52.380;4.654;2023-04-24T23:14:16;19.43;;;5.07;;
16906;SDS011;8570;52.380;4.654;2023-04-24T23:19:18;18.27;;;4.30;;
16906;SDS011;8570;52.380;4.654;2023-04-24T23:24:21;14.87;;;4.00;;
16906;SDS011;8570;52.380;4.654;2023-04-24T23:29:23;18.67;;;4.20;;
16906;SDS011;8570;52.380;4.654;2023-04-24T23:34:25;17.00;;;3.90;;
16906;SDS011;8570;52.380;4.654;2023-04-24T23:39:29;17.53;;;3.77;;
16906;SDS011;8570;52.380;4.654;2023-04-24T23:44:30;17.50;;;3.80;;
16906;SDS011;8570;52.380;4.654;2023-04-24T23:49:34;8.47;;;2.97;;
16906;SDS011;8570;52.380;4.654;2023-04-24T23:54:39;15.80;;;3.50;;
16906;SDS011;8570;52.380;4.654;2023-04-24T23:59:41;12.10;;;2.93;;
